sensor_id;sensor_type;location;lat;lon;timestamp;temperature;humidity
51811;DHT22;52468;40.116;18.296;2022-11-15T00:00:20;15.60;86.90
51811;DHT22;52468;40.116;18.296;2022-11-15T00:03:06;15.50;87.20
51811;DHT22;52468;40.116;18.296;2022-11-15T00:05:52;15.50;87.40
51811;DHT22;52468;40.116;18.296;2022-11-15T00:08:39;15.50;87.50
51811;DHT22;52468;40.116;18.296;2022-11-15T00:11:26;15.50;87.80
51811;DHT22;52468;40.116;18.296;2022-11-15T00:14:13;15.50;87.80
51811;DHT22;52468;40.116;18.296;2022-11-15T00:16:59;15.60;87.60
51811;DHT22;52468;40.116;18.296;2022-11-15T00:19:46;15.60;87.70
51811;DHT22;52468;40.116;18.296;2022-11-15T00:22:33;15.50;87.30
51811;DHT22;52468;40.116;18.296;2022-11-15T00:25:20;15.50;87.60
51811;DHT22;52468;40.116;18.296;2022-11-15T00:28:06;15.50;87.80
51811;DHT22;52468;40.116;18.296;2022-11-15T00:30:53;15.50;86.90
51811;DHT22;52468;40.116;18.296;2022-11-15T00:33:39;15.50;87.10
51811;DHT22;52468;40.116;18.296;2022-11-15T00:36:26;15.50;87.60
51811;DHT22;52468;40.116;18.296;2022-11-15T00:39:12;15.50;87.60
51811;DHT22;52468;40.116;18.296;2022-11-15T00:41:58;15.40;87.80
51811;DHT22;52468;40.116;18.296;2022-11-15T00:44:44;15.50;87.00
51811;DHT22;52468;40.116;18.296;2022-11-15T00:47:31;15.40;87.50
51811;DHT22;52468;40.116;18.296;2022-11-15T00:50:18;15.30;87.70
51811;DHT22;52468;40.116;18.296;2022-11-15T00:53:05;15.30;87.70
51811;DHT22;52468;40.116;18.296;2022-11-15T00:55:51;15.20;87.80
51811;DHT22;52468;40.116;18.296;2022-11-15T00:58:38;15.30;87.80
51811;DHT22;52468;40.116;18.296;2022-11-15T01:01:24;15.20;87.40
51811;DHT22;52468;40.116;18.296;2022-11-15T01:04:10;15.10;87.60
51811;DHT22;52468;40.116;18.296;2022-11-15T01:06:56;15.10;87.70
51811;DHT22;52468;40.116;18.296;2022-11-15T01:09:43;15.10;87.80
51811;DHT22;52468;40.116;18.296;2022-11-15T01:12:29;15.10;87.80
51811;DHT22;52468;40.116;18.296;2022-11-15T01:15:15;15.10;87.30
51811;DHT22;52468;40.116;18.296;2022-11-15T01:18:02;15.00;87.60
51811;DHT22;52468;40.116;18.296;2022-11-15T01:20:48;15.00;87.40
51811;DHT22;52468;40.116;18.296;2022-11-15T01:23:35;15.00;87.50
51811;DHT22;52468;40.116;18.296;2022-11-15T01:26:21;15.00;87.50
51811;DHT22;52468;40.116;18.296;2022-11-15T01:29:08;15.00;87.40
51811;DHT22;52468;40.116;18.296;2022-11-15T01:31:54;14.90;87.40
51811;DHT22;52468;40.116;18.296;2022-11-15T01:34:41;14.90;87.40
51811;DHT22;52468;40.116;18.296;2022-11-15T01:37:27;14.80;87.50
51811;DHT22;52468;40.116;18.296;2022-11-15T01:40:14;14.80;87.70
51811;DHT22;52468;40.116;18.296;2022-11-15T01:46:35;14.80;87.00
51811;DHT22;52468;40.116;18.296;2022-11-15T01:49:22;14.80;87.00
51811;DHT22;52468;40.116;18.296;2022-11-15T01:52:14;14.70;86.80
51811;DHT22;52468;40.116;18.296;2022-11-15T01:55:14;14.70;87.10
51811;DHT22;52468;40.116;18.296;2022-11-15T01:58:04;14.60;87.40
51811;DHT22;52468;40.116;18.296;2022-11-15T02:00:50;14.70;87.60
51811;DHT22;52468;40.116;18.296;2022-11-15T02:03:50;14.60;87.70
51811;DHT22;52468;40.116;18.296;2022-11-15T02:06:38;14.60;87.50
51811;DHT22;52468;40.116;18.296;2022-11-15T02:09:25;14.60;87.20
51811;DHT22;52468;40.116;18.296;2022-11-15T02:12:15;14.60;87.80
51811;DHT22;52468;40.116;18.296;2022-11-15T02:15:03;14.60;87.70
51811;DHT22;52468;40.116;18.296;2022-11-15T02:20:58;14.60;87.00
51811;DHT22;52468;40.116;18.296;2022-11-15T02:30:20;14.60;87.00
51811;DHT22;52468;40.116;18.296;2022-11-15T02:39:36;14.50;87.30
51811;DHT22;52468;40.116;18.296;2022-11-15T02:42:28;14.50;86.80
51811;DHT22;52468;40.116;18.296;2022-11-15T02:45:39;14.50;87.20
51811;DHT22;52468;40.116;18.296;2022-11-15T02:48:28;14.50;87.20
51811;DHT22;52468;40.116;18.296;2022-11-15T02:51:16;14.50;87.50
51811;DHT22;52468;40.116;18.296;2022-11-15T02:54:02;14.50;86.60
51811;DHT22;52468;40.116;18.296;2022-11-15T02:56:50;14.50;86.80
51811;DHT22;52468;40.116;18.296;2022-11-15T03:07:18;14.40;86.40
51811;DHT22;52468;40.116;18.296;2022-11-15T03:09:40;14.30;86.40
51811;DHT22;52468;40.116;18.296;2022-11-15T03:12:50;14.20;86.20
51811;DHT22;52468;40.116;18.296;2022-11-15T03:16:26;14.20;86.00
51811;DHT22;52468;40.116;18.296;2022-11-15T03:22:11;14.10;86.30
51811;DHT22;52468;40.116;18.296;2022-11-15T03:25:04;14.10;87.40
51811;DHT22;52468;40.116;18.296;2022-11-15T03:27:53;14.10;86.80
51811;DHT22;52468;40.116;18.296;2022-11-15T03:30:42;14.20;86.60
51811;DHT22;52468;40.116;18.296;2022-11-15T03:33:30;14.20;87.40
51811;DHT22;52468;40.116;18.296;2022-11-15T03:36:17;14.20;87.60
51811;DHT22;52468;40.116;18.296;2022-11-15T03:39:07;14.20;87.20
51811;DHT22;52468;40.116;18.296;2022-11-15T03:42:04;14.30;87.60
51811;DHT22;52468;40.116;18.296;2022-11-15T03:44:58;14.30;87.60
51811;DHT22;52468;40.116;18.296;2022-11-15T03:47:59;14.30;87.60
51811;DHT22;52468;40.116;18.296;2022-11-15T03:50:48;14.20;87.80
51811;DHT22;52468;40.116;18.296;2022-11-15T03:53:34;14.20;87.00
51811;DHT22;52468;40.116;18.296;2022-11-15T03:56:21;14.20;86.30
51811;DHT22;52468;40.116;18.296;2022-11-15T03:59:07;14.10;86.80
51811;DHT22;52468;40.116;18.296;2022-11-15T04:01:54;14.10;87.30
51811;DHT22;52468;40.116;18.296;2022-11-15T04:04:40;14.10;87.50
51811;DHT22;52468;40.116;18.296;2022-11-15T04:07:27;14.10;87.60
51811;DHT22;52468;40.116;18.296;2022-11-15T04:10:14;14.00;87.80
51811;DHT22;52468;40.116;18.296;2022-11-15T04:13:02;14.00;87.70
51811;DHT22;52468;40.116;18.296;2022-11-15T04:15:48;14.00;87.70
51811;DHT22;52468;40.116;18.296;2022-11-15T04:18:35;14.00;87.50
51811;DHT22;52468;40.116;18.296;2022-11-15T04:21:22;14.10;87.60
51811;DHT22;52468;40.116;18.296;2022-11-15T04:24:27;14.10;87.20
51811;DHT22;52468;40.116;18.296;2022-11-15T04:27:13;14.10;87.40
51811;DHT22;52468;40.116;18.296;2022-11-15T04:30:00;14.10;87.70
51811;DHT22;52468;40.116;18.296;2022-11-15T04:32:46;14.10;87.50
51811;DHT22;52468;40.116;18.296;2022-11-15T04:35:32;14.00;87.70
51811;DHT22;52468;40.116;18.296;2022-11-15T04:38:19;14.10;87.60
51811;DHT22;52468;40.116;18.296;2022-11-15T04:41:05;14.00;87.70
51811;DHT22;52468;40.116;18.296;2022-11-15T04:43:51;14.00;87.60
51811;DHT22;52468;40.116;18.296;2022-11-15T04:46:37;14.00;87.60
51811;DHT22;52468;40.116;18.296;2022-11-15T04:49:24;13.90;87.80
51811;DHT22;52468;40.116;18.296;2022-11-15T04:52:11;13.90;87.80
51811;DHT22;52468;40.116;18.296;2022-11-15T04:54:57;13.90;87.70
51811;DHT22;52468;40.116;18.296;2022-11-15T04:57:44;13.80;87.90
51811;DHT22;52468;40.116;18.296;2022-11-15T05:00:31;13.90;87.80
51811;DHT22;52468;40.116;18.296;2022-11-15T05:03:18;13.80;87.80
51811;DHT22;52468;40.116;18.296;2022-11-15T05:06:23;13.80;87.50
51811;DHT22;52468;40.116;18.296;2022-11-15T05:09:09;13.80;87.80
51811;DHT22;52468;40.116;18.296;2022-11-15T05:11:56;13.80;87.90
51811;DHT22;52468;40.116;18.296;2022-11-15T05:14:43;13.80;87.90
51811;DHT22;52468;40.116;18.296;2022-11-15T05:17:30;13.80;87.60
51811;DHT22;52468;40.116;18.296;2022-11-15T05:20:16;13.70;87.90
51811;DHT22;52468;40.116;18.296;2022-11-15T05:23:03;13.70;87.60
51811;DHT22;52468;40.116;18.296;2022-11-15T05:25:49;13.80;87.70
51811;DHT22;52468;40.116;18.296;2022-11-15T05:28:36;13.70;87.50
51811;DHT22;52468;40.116;18.296;2022-11-15T05:31:23;13.70;87.50
51811;DHT22;52468;40.116;18.296;2022-11-15T05:34:10;13.70;87.40
51811;DHT22;52468;40.116;18.296;2022-11-15T05:36:56;13.70;87.40
51811;DHT22;52468;40.116;18.296;2022-11-15T05:39:42;13.80;87.10
51811;DHT22;52468;40.116;18.296;2022-11-15T05:42:29;13.80;87.30
51811;DHT22;52468;40.116;18.296;2022-11-15T05:45:16;13.80;87.00
51811;DHT22;52468;40.116;18.296;2022-11-15T05:48:06;13.80;87.30
51811;DHT22;52468;40.116;18.296;2022-11-15T05:50:56;13.80;87.00
51811;DHT22;52468;40.116;18.296;2022-11-15T05:53:43;13.90;87.10
51811;DHT22;52468;40.116;18.296;2022-11-15T05:56:30;14.00;87.10
51811;DHT22;52468;40.116;18.296;2022-11-15T05:59:17;14.00;87.60
51811;DHT22;52468;40.116;18.296;2022-11-15T06:02:04;14.00;87.50
51811;DHT22;52468;40.116;18.296;2022-11-15T06:04:50;14.10;87.40
51811;DHT22;52468;40.116;18.296;2022-11-15T06:07:36;14.10;87.30
51811;DHT22;52468;40.116;18.296;2022-11-15T06:10:23;14.20;87.00
51811;DHT22;52468;40.116;18.296;2022-11-15T06:13:10;14.30;87.20
51811;DHT22;52468;40.116;18.296;2022-11-15T06:15:56;14.30;86.90
51811;DHT22;52468;40.116;18.296;2022-11-15T06:18:43;14.20;87.40
51811;DHT22;52468;40.116;18.296;2022-11-15T06:21:29;14.50;87.70
51811;DHT22;52468;40.116;18.296;2022-11-15T06:24:16;14.50;87.80
51811;DHT22;52468;40.116;18.296;2022-11-15T06:27:02;14.70;88.00
51811;DHT22;52468;40.116;18.296;2022-11-15T06:29:49;14.90;87.50
51811;DHT22;52468;40.116;18.296;2022-11-15T06:32:35;15.00;87.60
51811;DHT22;52468;40.116;18.296;2022-11-15T06:35:22;15.10;87.60
51811;DHT22;52468;40.116;18.296;2022-11-15T06:38:09;15.20;87.30
51811;DHT22;52468;40.116;18.296;2022-11-15T06:41:02;15.30;87.00
51811;DHT22;52468;40.116;18.296;2022-11-15T06:43:48;15.30;87.40
51811;DHT22;52468;40.116;18.296;2022-11-15T06:46:36;15.40;87.20
51811;DHT22;52468;40.116;18.296;2022-11-15T06:49:23;15.50;87.20
51811;DHT22;52468;40.116;18.296;2022-11-15T06:52:09;15.60;87.40
51811;DHT22;52468;40.116;18.296;2022-11-15T06:54:56;15.60;87.70
51811;DHT22;52468;40.116;18.296;2022-11-15T06:57:52;15.80;87.70
51811;DHT22;52468;40.116;18.296;2022-11-15T07:00:38;15.80;87.70
51811;DHT22;52468;40.116;18.296;2022-11-15T07:03:25;15.90;87.50
51811;DHT22;52468;40.116;18.296;2022-11-15T07:06:12;16.00;87.80
51811;DHT22;52468;40.116;18.296;2022-11-15T07:08:59;16.00;87.50
51811;DHT22;52468;40.116;18.296;2022-11-15T07:11:45;16.00;87.20
51811;DHT22;52468;40.116;18.296;2022-11-15T07:14:31;16.00;87.40
51811;DHT22;52468;40.116;18.296;2022-11-15T07:17:17;16.00;87.80
51811;DHT22;52468;40.116;18.296;2022-11-15T07:20:04;16.10;87.90
51811;DHT22;52468;40.116;18.296;2022-11-15T07:22:50;16.20;87.70
51811;DHT22;52468;40.116;18.296;2022-11-15T07:25:37;16.30;88.20
51811;DHT22;52468;40.116;18.296;2022-11-15T07:28:23;16.50;88.00
51811;DHT22;52468;40.116;18.296;2022-11-15T07:31:10;16.60;88.30
51811;DHT22;52468;40.116;18.296;2022-11-15T07:33:56;16.80;88.80
51811;DHT22;52468;40.116;18.296;2022-11-15T07:36:43;17.00;88.70
51811;DHT22;52468;40.116;18.296;2022-11-15T07:39:29;17.10;88.60
51811;DHT22;52468;40.116;18.296;2022-11-15T07:42:15;17.30;88.40
51811;DHT22;52468;40.116;18.296;2022-11-15T07:45:21;17.40;88.30
51811;DHT22;52468;40.116;18.296;2022-11-15T07:48:08;17.50;88.70
51811;DHT22;52468;40.116;18.296;2022-11-15T07:50:56;17.70;88.30
51811;DHT22;52468;40.116;18.296;2022-11-15T07:53:44;17.80;88.00
51811;DHT22;52468;40.116;18.296;2022-11-15T07:56:30;18.00;88.30
51811;DHT22;52468;40.116;18.296;2022-11-15T07:59:16;18.20;88.60
51811;DHT22;52468;40.116;18.296;2022-11-15T08:02:02;18.50;89.10
51811;DHT22;52468;40.116;18.296;2022-11-15T08:04:49;18.70;88.60
51811;DHT22;52468;40.116;18.296;2022-11-15T08:07:35;18.80;88.00
51811;DHT22;52468;40.116;18.296;2022-11-15T08:10:25;19.00;88.50
51811;DHT22;52468;40.116;18.296;2022-11-15T08:13:13;19.00;87.30
51811;DHT22;52468;40.116;18.296;2022-11-15T08:16:00;19.20;88.20
51811;DHT22;52468;40.116;18.296;2022-11-15T08:18:47;19.50;87.80
51811;DHT22;52468;40.116;18.296;2022-11-15T08:21:34;19.50;87.20
51811;DHT22;52468;40.116;18.296;2022-11-15T08:24:21;19.40;86.60
51811;DHT22;52468;40.116;18.296;2022-11-15T08:27:07;19.30;86.30
51811;DHT22;52468;40.116;18.296;2022-11-15T08:30:00;19.20;87.30
51811;DHT22;52468;40.116;18.296;2022-11-15T08:32:48;19.30;86.70
51811;DHT22;52468;40.116;18.296;2022-11-15T08:35:35;19.20;86.60
51811;DHT22;52468;40.116;18.296;2022-11-15T08:38:22;19.30;87.10
51811;DHT22;52468;40.116;18.296;2022-11-15T08:41:16;19.10;85.60
51811;DHT22;52468;40.116;18.296;2022-11-15T08:44:06;19.20;86.80
51811;DHT22;52468;40.116;18.296;2022-11-15T08:46:52;19.10;85.80
51811;DHT22;52468;40.116;18.296;2022-11-15T08:49:39;19.10;86.20
51811;DHT22;52468;40.116;18.296;2022-11-15T08:52:25;19.10;86.20
51811;DHT22;52468;40.116;18.296;2022-11-15T08:55:12;19.10;86.90
51811;DHT22;52468;40.116;18.296;2022-11-15T08:57:58;19.30;86.70
51811;DHT22;52468;40.116;18.296;2022-11-15T09:00:45;19.30;86.20
51811;DHT22;52468;40.116;18.296;2022-11-15T09:03:31;19.40;86.20
51811;DHT22;52468;40.116;18.296;2022-11-15T09:06:18;19.40;84.60
51811;DHT22;52468;40.116;18.296;2022-11-15T09:09:05;19.60;84.90
51811;DHT22;52468;40.116;18.296;2022-11-15T09:11:51;19.60;84.80
51811;DHT22;52468;40.116;18.296;2022-11-15T09:14:38;19.80;85.00
51811;DHT22;52468;40.116;18.296;2022-11-15T09:17:25;19.90;83.40
51811;DHT22;52468;40.116;18.296;2022-11-15T09:20:11;19.90;82.60
51811;DHT22;52468;40.116;18.296;2022-11-15T09:23:00;20.10;83.60
51811;DHT22;52468;40.116;18.296;2022-11-15T09:25:47;20.10;81.40
51811;DHT22;52468;40.116;18.296;2022-11-15T09:28:34;20.00;82.40
51811;DHT22;52468;40.116;18.296;2022-11-15T09:31:21;20.10;83.90
51811;DHT22;52468;40.116;18.296;2022-11-15T09:34:07;20.00;82.90
51811;DHT22;52468;40.116;18.296;2022-11-15T09:36:53;19.90;83.00
51811;DHT22;52468;40.116;18.296;2022-11-15T09:39:40;20.20;83.70
51811;DHT22;52468;40.116;18.296;2022-11-15T09:49:06;21.10;77.80
51811;DHT22;52468;40.116;18.296;2022-11-15T09:51:53;21.20;79.50
51811;DHT22;52468;40.116;18.296;2022-11-15T09:54:41;21.60;81.20
51811;DHT22;52468;40.116;18.296;2022-11-15T10:05:29;22.40;74.10
51811;DHT22;52468;40.116;18.296;2022-11-15T10:11:01;22.30;77.90
51811;DHT22;52468;40.116;18.296;2022-11-15T10:13:50;22.50;79.20
51811;DHT22;52468;40.116;18.296;2022-11-15T10:24:37;22.40;74.80
51811;DHT22;52468;40.116;18.296;2022-11-15T10:27:16;22.30;77.60
51811;DHT22;52468;40.116;18.296;2022-11-15T10:29:49;22.10;77.90
51811;DHT22;52468;40.116;18.296;2022-11-15T10:32:20;22.00;80.60
51811;DHT22;52468;40.116;18.296;2022-11-15T10:34:49;21.90;79.50
51811;DHT22;52468;40.116;18.296;2022-11-15T10:37:31;21.70;79.10
51811;DHT22;52468;40.116;18.296;2022-11-15T10:40:22;21.60;80.00
51811;DHT22;52468;40.116;18.296;2022-11-15T10:45:38;21.50;81.70
51811;DHT22;52468;40.116;18.296;2022-11-15T10:50:44;21.90;80.50
51811;DHT22;52468;40.116;18.296;2022-11-15T10:53:37;22.20;79.60
51811;DHT22;52468;40.116;18.296;2022-11-15T10:56:08;22.60;80.30
51811;DHT22;52468;40.116;18.296;2022-11-15T10:58:42;23.00;80.00
51811;DHT22;52468;40.116;18.296;2022-11-15T11:01:28;23.20;75.30
51811;DHT22;52468;40.116;18.296;2022-11-15T11:04:02;23.50;79.70
51811;DHT22;52468;40.116;18.296;2022-11-15T11:06:32;23.70;75.80
51811;DHT22;52468;40.116;18.296;2022-11-15T11:09:28;24.00;79.10
51811;DHT22;52468;40.116;18.296;2022-11-15T11:11:56;24.20;76.40
51811;DHT22;52468;40.116;18.296;2022-11-15T11:14:29;23.90;74.70
51811;DHT22;52468;40.116;18.296;2022-11-15T11:17:15;23.50;76.70
51811;DHT22;52468;40.116;18.296;2022-11-15T11:19:56;23.20;76.00
51811;DHT22;52468;40.116;18.296;2022-11-15T11:25:56;22.60;74.70
51811;DHT22;52468;40.116;18.296;2022-11-15T11:36:42;23.00;64.80
51811;DHT22;52468;40.116;18.296;2022-11-15T11:42:08;23.20;69.70
51811;DHT22;52468;40.116;18.296;2022-11-15T11:44:51;23.30;71.50
51811;DHT22;52468;40.116;18.296;2022-11-15T11:47:27;23.30;68.00
51811;DHT22;52468;40.116;18.296;2022-11-15T11:50:22;23.10;67.80
51811;DHT22;52468;40.116;18.296;2022-11-15T11:53:05;22.90;62.30
51811;DHT22;52468;40.116;18.296;2022-11-15T11:55:43;22.90;66.00
51811;DHT22;52468;40.116;18.296;2022-11-15T12:03:57;23.30;62.30
51811;DHT22;52468;40.116;18.296;2022-11-15T12:06:41;23.20;62.80
51811;DHT22;52468;40.116;18.296;2022-11-15T12:09:38;23.30;62.00
51811;DHT22;52468;40.116;18.296;2022-11-15T12:15:04;23.30;59.70
51811;DHT22;52468;40.116;18.296;2022-11-15T12:17:40;23.20;59.80
51811;DHT22;52468;40.116;18.296;2022-11-15T12:20:17;23.30;60.80
51811;DHT22;52468;40.116;18.296;2022-11-15T12:23:32;23.60;58.40
51811;DHT22;52468;40.116;18.296;2022-11-15T12:26:15;23.50;57.60
51811;DHT22;52468;40.116;18.296;2022-11-15T12:34:03;23.20;57.00
51811;DHT22;52468;40.116;18.296;2022-11-15T12:36:42;23.30;55.90
51811;DHT22;52468;40.116;18.296;2022-11-15T12:39:11;23.20;56.50
51811;DHT22;52468;40.116;18.296;2022-11-15T12:41:44;23.30;55.90
51811;DHT22;52468;40.116;18.296;2022-11-15T12:52:05;23.80;54.70
51811;DHT22;52468;40.116;18.296;2022-11-15T13:08:01;23.90;54.60
51811;DHT22;52468;40.116;18.296;2022-11-15T13:10:34;23.70;52.10
51811;DHT22;52468;40.116;18.296;2022-11-15T13:13:08;23.50;52.60
51811;DHT22;52468;40.116;18.296;2022-11-15T13:15:56;23.30;51.80
51811;DHT22;52468;40.116;18.296;2022-11-15T13:19:11;23.30;51.60
51811;DHT22;52468;40.116;18.296;2022-11-15T13:21:24;23.00;51.00
51811;DHT22;52468;40.116;18.296;2022-11-15T13:24:13;23.00;51.60
51811;DHT22;52468;40.116;18.296;2022-11-15T13:26:41;22.90;51.90
51811;DHT22;52468;40.116;18.296;2022-11-15T13:29:15;22.90;52.10
51811;DHT22;52468;40.116;18.296;2022-11-15T13:31:44;23.00;52.00
51811;DHT22;52468;40.116;18.296;2022-11-15T13:34:25;23.10;52.30
51811;DHT22;52468;40.116;18.296;2022-11-15T13:39:48;23.60;52.30
51811;DHT22;52468;40.116;18.296;2022-11-15T13:42:19;23.90;52.20
51811;DHT22;52468;40.116;18.296;2022-11-15T13:45:02;24.00;50.90
51811;DHT22;52468;40.116;18.296;2022-11-15T13:47:31;23.90;50.60
51811;DHT22;52468;40.116;18.296;2022-11-15T13:49:59;23.60;49.20
51811;DHT22;52468;40.116;18.296;2022-11-15T13:52:35;23.50;50.10
51811;DHT22;52468;40.116;18.296;2022-11-15T14:00:25;23.40;50.80
51811;DHT22;52468;40.116;18.296;2022-11-15T14:02:55;23.20;51.40
51811;DHT22;52468;40.116;18.296;2022-11-15T14:05:24;22.90;52.20
51811;DHT22;52468;40.116;18.296;2022-11-15T14:08:01;22.60;56.30
51811;DHT22;52468;40.116;18.296;2022-11-15T14:13:00;21.90;61.00
51811;DHT22;52468;40.116;18.296;2022-11-15T14:17:59;21.40;63.20
51811;DHT22;52468;40.116;18.296;2022-11-15T14:23:24;21.00;64.90
51811;DHT22;52468;40.116;18.296;2022-11-15T14:25:59;20.80;65.50
51811;DHT22;52468;40.116;18.296;2022-11-15T14:30:57;20.60;66.00
51811;DHT22;52468;40.116;18.296;2022-11-15T14:33:36;20.50;66.70
51811;DHT22;52468;40.116;18.296;2022-11-15T14:36:10;20.40;67.10
51811;DHT22;52468;40.116;18.296;2022-11-15T14:38:38;20.30;67.30
51811;DHT22;52468;40.116;18.296;2022-11-15T14:41:20;20.30;67.60
51811;DHT22;52468;40.116;18.296;2022-11-15T14:43:50;20.20;68.00
51811;DHT22;52468;40.116;18.296;2022-11-15T14:46:18;20.10;68.50
51811;DHT22;52468;40.116;18.296;2022-11-15T14:48:46;20.20;68.00
51811;DHT22;52468;40.116;18.296;2022-11-15T14:51:16;20.10;68.30
51811;DHT22;52468;40.116;18.296;2022-11-15T14:53:46;20.00;69.00
51811;DHT22;52468;40.116;18.296;2022-11-15T14:56:14;19.80;69.20
51811;DHT22;52468;40.116;18.296;2022-11-15T14:58:43;19.70;69.70
51811;DHT22;52468;40.116;18.296;2022-11-15T15:03:45;19.50;70.40
51811;DHT22;52468;40.116;18.296;2022-11-15T15:06:13;19.30;71.40
51811;DHT22;52468;40.116;18.296;2022-11-15T15:08:44;19.30;71.20
51811;DHT22;52468;40.116;18.296;2022-11-15T15:11:20;19.10;71.80
51811;DHT22;52468;40.116;18.296;2022-11-15T15:13:49;19.00;72.40
51811;DHT22;52468;40.116;18.296;2022-11-15T15:16:16;19.00;72.30
51811;DHT22;52468;40.116;18.296;2022-11-15T15:18:44;18.90;72.80
51811;DHT22;52468;40.116;18.296;2022-11-15T15:21:26;18.80;73.10
51811;DHT22;52468;40.116;18.296;2022-11-15T15:24:03;18.70;73.20
51811;DHT22;52468;40.116;18.296;2022-11-15T15:26:31;18.60;73.90
51811;DHT22;52468;40.116;18.296;2022-11-15T15:29:03;18.50;74.30
51811;DHT22;52468;40.116;18.296;2022-11-15T15:31:31;18.40;74.40
51811;DHT22;52468;40.116;18.296;2022-11-15T15:34:00;18.30;74.90
51811;DHT22;52468;40.116;18.296;2022-11-15T15:36:28;18.30;75.00
51811;DHT22;52468;40.116;18.296;2022-11-15T15:38:56;18.10;75.60
51811;DHT22;52468;40.116;18.296;2022-11-15T15:41:24;18.00;76.20
51811;DHT22;52468;40.116;18.296;2022-11-15T15:43:52;18.00;75.70
51811;DHT22;52468;40.116;18.296;2022-11-15T15:46:20;18.00;76.10
51811;DHT22;52468;40.116;18.296;2022-11-15T15:48:49;18.00;75.90
51811;DHT22;52468;40.116;18.296;2022-11-15T15:51:16;17.90;76.00
51811;DHT22;52468;40.116;18.296;2022-11-15T15:53:47;17.80;76.40
51811;DHT22;52468;40.116;18.296;2022-11-15T15:56:15;17.70;76.40
51811;DHT22;52468;40.116;18.296;2022-11-15T15:58:43;17.60;76.80
51811;DHT22;52468;40.116;18.296;2022-11-15T16:01:11;17.50;77.10
51811;DHT22;52468;40.116;18.296;2022-11-15T16:03:38;17.50;76.90
51811;DHT22;52468;40.116;18.296;2022-11-15T16:06:34;17.50;77.50
51811;DHT22;52468;40.116;18.296;2022-11-15T16:09:03;17.50;77.80
51811;DHT22;52468;40.116;18.296;2022-11-15T16:11:41;17.40;78.20
51811;DHT22;52468;40.116;18.296;2022-11-15T16:14:09;17.40;78.10
51811;DHT22;52468;40.116;18.296;2022-11-15T16:16:38;17.40;77.40
51811;DHT22;52468;40.116;18.296;2022-11-15T16:19:07;17.30;77.70
51811;DHT22;52468;40.116;18.296;2022-11-15T16:21:36;17.20;78.20
51811;DHT22;52468;40.116;18.296;2022-11-15T16:24:04;17.10;78.10
51811;DHT22;52468;40.116;18.296;2022-11-15T16:26:32;17.00;78.10
51811;DHT22;52468;40.116;18.296;2022-11-15T16:29:02;17.00;78.20
51811;DHT22;52468;40.116;18.296;2022-11-15T16:31:30;16.90;78.70
51811;DHT22;52468;40.116;18.296;2022-11-15T16:33:57;16.80;79.10
51811;DHT22;52468;40.116;18.296;2022-11-15T16:36:26;16.80;79.60
51811;DHT22;52468;40.116;18.296;2022-11-15T16:38:57;16.70;79.50
51811;DHT22;52468;40.116;18.296;2022-11-15T16:41:25;16.80;79.00
51811;DHT22;52468;40.116;18.296;2022-11-15T16:43:53;16.80;79.00
51811;DHT22;52468;40.116;18.296;2022-11-15T16:46:23;16.80;79.30
51811;DHT22;52468;40.116;18.296;2022-11-15T16:48:52;16.80;79.30
51811;DHT22;52468;40.116;18.296;2022-11-15T16:51:23;16.90;79.20
51811;DHT22;52468;40.116;18.296;2022-11-15T16:53:51;16.80;79.50
51811;DHT22;52468;40.116;18.296;2022-11-15T16:56:26;16.80;79.90
51811;DHT22;52468;40.116;18.296;2022-11-15T16:58:55;16.70;80.40
51811;DHT22;52468;40.116;18.296;2022-11-15T17:01:30;16.70;80.50
51811;DHT22;52468;40.116;18.296;2022-11-15T17:03:58;16.60;80.60
51811;DHT22;52468;40.116;18.296;2022-11-15T17:06:39;16.50;80.20
51811;DHT22;52468;40.116;18.296;2022-11-15T17:09:19;16.50;80.00
51811;DHT22;52468;40.116;18.296;2022-11-15T17:11:47;16.40;79.80
51811;DHT22;52468;40.116;18.296;2022-11-15T17:14:15;16.30;79.70
51811;DHT22;52468;40.116;18.296;2022-11-15T17:16:43;16.20;79.90
51811;DHT22;52468;40.116;18.296;2022-11-15T17:19:16;16.10;80.20
51811;DHT22;52468;40.116;18.296;2022-11-15T17:21:45;16.10;80.20
51811;DHT22;52468;40.116;18.296;2022-11-15T17:24:13;16.00;80.60
51811;DHT22;52468;40.116;18.296;2022-11-15T17:26:40;16.00;80.70
51811;DHT22;52468;40.116;18.296;2022-11-15T17:29:09;15.90;80.40
51811;DHT22;52468;40.116;18.296;2022-11-15T17:31:37;15.80;80.70
51811;DHT22;52468;40.116;18.296;2022-11-15T17:34:05;15.80;81.20
51811;DHT22;52468;40.116;18.296;2022-11-15T17:36:34;15.80;81.10
51811;DHT22;52468;40.116;18.296;2022-11-15T17:39:03;15.70;81.10
51811;DHT22;52468;40.116;18.296;2022-11-15T17:41:31;15.70;81.20
51811;DHT22;52468;40.116;18.296;2022-11-15T17:43:59;15.60;81.00
51811;DHT22;52468;40.116;18.296;2022-11-15T17:46:28;15.70;80.90
51811;DHT22;52468;40.116;18.296;2022-11-15T17:48:56;15.60;81.00
51811;DHT22;52468;40.116;18.296;2022-11-15T17:51:24;15.60;81.00
51811;DHT22;52468;40.116;18.296;2022-11-15T17:53:54;15.60;81.10
51811;DHT22;52468;40.116;18.296;2022-11-15T17:56:23;15.50;81.30
51811;DHT22;52468;40.116;18.296;2022-11-15T17:58:53;15.50;81.70
51811;DHT22;52468;40.116;18.296;2022-11-15T18:01:29;15.50;81.50
51811;DHT22;52468;40.116;18.296;2022-11-15T18:03:59;15.40;81.80
51811;DHT22;52468;40.116;18.296;2022-11-15T18:06:31;15.30;82.10
51811;DHT22;52468;40.116;18.296;2022-11-15T18:08:59;15.30;81.60
51811;DHT22;52468;40.116;18.296;2022-11-15T18:11:47;15.30;81.60
51811;DHT22;52468;40.116;18.296;2022-11-15T18:14:18;15.30;81.50
51811;DHT22;52468;40.116;18.296;2022-11-15T18:16:46;15.20;81.60
51811;DHT22;52468;40.116;18.296;2022-11-15T18:19:14;15.20;81.70
51811;DHT22;52468;40.116;18.296;2022-11-15T18:21:44;15.10;81.70
51811;DHT22;52468;40.116;18.296;2022-11-15T18:24:29;15.10;81.80
51811;DHT22;52468;40.116;18.296;2022-11-15T18:26:58;15.10;82.00
51811;DHT22;52468;40.116;18.296;2022-11-15T18:29:26;15.00;82.30
51811;DHT22;52468;40.116;18.296;2022-11-15T18:31:54;15.00;82.40
51811;DHT22;52468;40.116;18.296;2022-11-15T18:34:24;15.00;82.70
51811;DHT22;52468;40.116;18.296;2022-11-15T18:36:52;15.00;82.80
51811;DHT22;52468;40.116;18.296;2022-11-15T18:39:20;15.00;82.90
51811;DHT22;52468;40.116;18.296;2022-11-15T18:41:48;15.00;82.90
51811;DHT22;52468;40.116;18.296;2022-11-15T18:44:16;14.90;82.20
51811;DHT22;52468;40.116;18.296;2022-11-15T18:46:44;14.90;82.20
51811;DHT22;52468;40.116;18.296;2022-11-15T18:49:14;14.90;82.50
51811;DHT22;52468;40.116;18.296;2022-11-15T18:51:43;14.90;82.20